Time;durP1;ratioP1;P1;durP2;ratioP2;P2;SDS_P1;SDS_P2;PMS_P1;PMS_P2;Temp;Humidity;BMP_temperature;BMP_pressure;BME280_temperature;BME280_humidity;BME280_pressure;Samples;Min_cycle;Max_cycle;Signal;HPM_P1;HPM_P2
2021/11/13 00:01:44;;;;;;;44.90;31.77;;;;;;;;;;5061787;28;24398;-63
2021/11/13 00:04:09;;;;;;;46.07;35.83;;;;;;;;;;5059311;28;24427;-62
2021/11/13 00:06:34;;;;;;;45.50;34.53;;;;;;;;;;5051735;28;24430;-62
2021/11/13 00:08:59;;;;;;;43.90;33.83;;;;;;;;;;5037476;28;24399;-62
2021/11/13 00:11:25;;;;;;;43.77;31.40;;;;;;;;;;5057455;28;24419;-62
2021/11/13 00:13:55;;;;;;;45.73;34.90;;;;;;;;;;5063060;28;24447;-62
2021/11/13 00:16:20;;;;;;;44.05;34.50;;;;;;;;;;5062796;28;24525;-62
2021/11/13 00:18:47;;;;;;;46.70;33.80;;;;;;;;;;5040922;28;24514;-62
2021/11/13 00:21:13;;;;;;;45.70;33.72;;;;;;;;;;5040629;28;24419;-61
2021/11/13 00:23:38;;;;;;;43.63;35.13;;;;;;;;;;5060955;28;24407;-61
2021/11/13 00:26:03;;;;;;;44.25;34.60;;;;;;;;;;5062023;28;24451;-62
2021/11/13 00:28:28;;;;;;;44.37;31.30;;;;;;;;;;5062251;28;24497;-61
2021/11/13 00:30:54;;;;;;;46.13;36.40;;;;;;;;;;5060330;28;24904;-63
2021/11/13 00:33:19;;;;;;;44.30;34.97;;;;;;;;;;5051335;28;24967;-62
2021/11/13 00:35:44;;;;;;;44.17;33.70;;;;;;;;;;5058846;28;24509;-62
2021/11/13 00:38:09;;;;;;;45.83;33.23;;;;;;;;;;5052475;28;24419;-61
2021/11/13 00:40:35;;;;;;;44.53;34.20;;;;;;;;;;5046006;28;24513;-62
2021/11/13 00:43:00;;;;;;;43.13;35.20;;;;;;;;;;5059620;28;24402;-61
2021/11/13 00:45:25;;;;;;;44.72;35.80;;;;;;;;;;5059746;28;24560;-61
2021/11/13 00:47:51;;;;;;;43.10;34.90;;;;;;;;;;5059691;28;24956;-61
2021/11/13 00:50:16;;;;;;;46.35;34.50;;;;;;;;;;5058480;28;25039;-61
2021/11/13 00:52:41;;;;;;;43.30;33.27;;;;;;;;;;5059758;28;24402;-61
2021/11/13 00:55:07;;;;;;;42.40;34.67;;;;;;;;;;5059881;28;24441;-61
2021/11/13 00:57:33;;;;;;;46.50;36.58;;;;;;;;;;5061746;28;24445;-61
2021/11/13 00:59:58;;;;;;;45.13;33.43;;;;;;;;;;5057760;28;24411;-62
2021/11/13 01:02:23;;;;;;;45.77;33.93;;;;;;;;;;5055840;28;24769;-62
2021/11/13 01:04:48;;;;;;;45.88;35.15;;;;;;;;;;5058060;28;25019;-62
2021/11/13 01:07:13;;;;;;;42.95;32.58;;;;;;;;;;5058416;28;25017;-61
2021/11/13 01:09:39;;;;;;;43.30;35.72;;;;;;;;;;5051220;28;24414;-62
2021/11/13 01:12:04;;;;;;;43.77;34.77;;;;;;;;;;5058351;28;24982;-62
2021/11/13 01:14:29;;;;;;;43.53;33.17;;;;;;;;;;5056259;28;24937;-62
2021/11/13 01:16:54;;;;;;;42.53;32.13;;;;;;;;;;5056016;28;25023;-62
2021/11/13 01:19:20;;;;;;;41.53;33.13;;;;;;;;;;5061384;28;24476;-63
2021/11/13 01:21:45;;;;;;;39.17;33.30;;;;;;;;;;5060519;28;24426;-63
2021/11/13 01:24:10;;;;;;;41.90;35.03;;;;;;;;;;5059752;28;24448;-63
2021/11/13 01:26:35;;;;;;;40.53;33.90;;;;;;;;;;5061589;28;24473;-62
2021/11/13 01:29:01;;;;;;;43.23;32.80;;;;;;;;;;5056188;28;25019;-62
2021/11/13 01:31:26;;;;;;;45.60;35.67;;;;;;;;;;5055179;28;24776;-62
2021/11/13 01:33:56;;;;;;;41.70;31.70;;;;;;;;;;5055216;28;24976;-61
2021/11/13 01:36:21;;;;;;;37.85;32.05;;;;;;;;;;5061598;28;24975;-62
2021/11/13 01:38:46;;;;;;;39.30;31.53;;;;;;;;;;5061935;28;24434;-62
2021/11/13 01:41:11;;;;;;;40.80;30.70;;;;;;;;;;5059514;28;24628;-62
2021/11/13 01:43:37;;;;;;;42.65;32.05;;;;;;;;;;5057379;28;24426;-62
2021/11/13 01:46:04;;;;;;;42.40;32.10;;;;;;;;;;5055554;28;24502;-62
2021/11/13 01:48:29;;;;;;;40.00;31.40;;;;;;;;;;5059718;28;24430;-63
2021/11/13 01:50:55;;;;;;;41.83;34.22;;;;;;;;;;5059431;28;24469;-63
2021/11/13 01:53:20;;;;;;;44.10;35.67;;;;;;;;;;5059278;28;24411;-62
2021/11/13 01:55:45;;;;;;;40.73;31.57;;;;;;;;;;5057574;28;24442;-62
2021/11/13 01:58:11;;;;;;;43.43;32.23;;;;;;;;;;5057703;28;24477;-62
2021/11/13 02:00:57;;;;;;;40.10;31.83;;;;;;;;;;5057558;28;24476;-62
2021/11/13 02:03:23;;;;;;;41.28;33.08;;;;;;;;;;5059555;28;24414;-62
2021/11/13 02:05:48;;;;;;;43.28;34.78;;;;;;;;;;5054461;28;24986;-62
2021/11/13 02:08:14;;;;;;;45.05;34.50;;;;;;;;;;5059382;28;24414;-63
2021/11/13 02:10:40;;;;;;;43.07;33.27;;;;;;;;;;5055717;28;25025;-63
2021/11/13 02:13:05;;;;;;;43.30;32.90;;;;;;;;;;5058216;28;24394;-61
2021/11/13 02:15:30;;;;;;;42.43;32.73;;;;;;;;;;5059421;28;24418;-61
2021/11/13 02:17:57;;;;;;;43.60;33.90;;;;;;;;;;5060313;28;24421;-63
2021/11/13 02:20:28;;;;;;;43.05;33.22;;;;;;;;;;5065081;28;24454;-62
2021/11/13 02:22:55;;;;;;;39.97;34.72;;;;;;;;;;5062337;28;24443;-61
2021/11/13 02:25:22;;;;;;;43.22;33.90;;;;;;;;;;5061120;28;25003;-62
2021/11/13 02:27:47;;;;;;;41.53;34.65;;;;;;;;;;5060629;28;24453;-61
2021/11/13 02:30:13;;;;;;;38.92;32.47;;;;;;;;;;5062892;28;25029;-61
2021/11/13 02:32:39;;;;;;;41.55;32.08;;;;;;;;;;5064158;28;24790;-62
2021/11/13 02:35:05;;;;;;;41.67;32.28;;;;;;;;;;5062642;28;25297;-61
2021/11/13 02:37:30;;;;;;;39.78;31.63;;;;;;;;;;5061410;28;24441;-62
2021/11/13 02:39:56;;;;;;;42.47;32.77;;;;;;;;;;5058913;28;24422;-62
2021/11/13 02:42:22;;;;;;;38.88;31.77;;;;;;;;;;5061129;28;24467;-62
2021/11/13 02:44:51;;;;;;;39.03;30.67;;;;;;;;;;5045066;28;24584;-63
2021/11/13 02:47:17;;;;;;;41.60;32.40;;;;;;;;;;5063395;28;24410;-63
2021/11/13 02:49:43;;;;;;;41.13;31.13;;;;;;;;;;5064375;28;24991;-62
2021/11/13 02:52:08;;;;;;;39.55;32.67;;;;;;;;;;5058855;28;24411;-62
2021/11/13 02:54:33;;;;;;;37.80;30.80;;;;;;;;;;5058570;28;24415;-63
2021/11/13 02:56:58;;;;;;;40.70;32.50;;;;;;;;;;5062533;28;24431;-63
2021/11/13 02:59:23;;;;;;;39.20;30.08;;;;;;;;;;5063234;28;24403;-62
2021/11/13 03:01:49;;;;;;;41.58;31.30;;;;;;;;;;5064493;28;25332;-62
2021/11/13 03:04:15;;;;;;;38.77;30.50;;;;;;;;;;5060645;28;24403;-62
2021/11/13 03:06:40;;;;;;;36.45;28.30;;;;;;;;;;5058769;28;24796;-62
2021/11/13 03:09:06;;;;;;;41.33;31.63;;;;;;;;;;5058780;28;24426;-61
2021/11/13 03:11:31;;;;;;;40.33;33.40;;;;;;;;;;5061795;28;24498;-62
2021/11/13 03:13:56;;;;;;;40.70;32.93;;;;;;;;;;5061741;28;24768;-62
2021/11/13 03:16:21;;;;;;;43.50;34.03;;;;;;;;;;5062644;28;24438;-61
2021/11/13 03:18:46;;;;;;;41.93;31.50;;;;;;;;;;5049677;28;24408;-61
2021/11/13 03:21:12;;;;;;;41.70;30.23;;;;;;;;;;5051021;28;24462;-63
2021/11/13 03:23:38;;;;;;;40.00;30.33;;;;;;;;;;5062091;28;24497;-61
2021/11/13 03:26:08;;;;;;;39.42;30.63;;;;;;;;;;5061596;28;25001;-62
2021/11/13 03:28:35;;;;;;;40.03;31.10;;;;;;;;;;5062478;28;24820;-62
2021/11/13 03:31:02;;;;;;;37.70;28.77;;;;;;;;;;5057724;28;24462;-62
2021/11/13 03:33:28;;;;;;;37.97;28.60;;;;;;;;;;5057895;28;24435;-62
2021/11/13 03:35:54;;;;;;;39.17;31.92;;;;;;;;;;5059344;28;24434;-63
2021/11/13 03:38:19;;;;;;;36.40;28.15;;;;;;;;;;5062629;28;24421;-63
2021/11/13 03:40:46;;;;;;;36.70;27.00;;;;;;;;;;5062515;28;24489;-63
2021/11/13 03:43:12;;;;;;;37.97;27.80;;;;;;;;;;5061057;28;24516;-62
2021/11/13 03:45:38;;;;;;;34.53;28.27;;;;;;;;;;5059468;28;24785;-63
2021/11/13 03:48:03;;;;;;;35.50;28.52;;;;;;;;;;5037731;28;24497;-63
2021/11/13 03:50:29;;;;;;;33.50;25.73;;;;;;;;;;5048861;28;24422;-62
2021/11/13 03:52:54;;;;;;;31.70;23.67;;;;;;;;;;5060774;28;24407;-63
2021/11/13 03:55:20;;;;;;;31.90;24.83;;;;;;;;;;5062917;28;24415;-62
2021/11/13 03:57:45;;;;;;;32.53;24.73;;;;;;;;;;5061204;28;25003;-62
2021/11/13 04:00:11;;;;;;;34.23;27.43;;;;;;;;;;5028421;28;24960;-62
2021/11/13 04:02:36;;;;;;;31.20;25.20;;;;;;;;;;5057398;28;24498;-63
2021/11/13 04:05:02;;;;;;;31.13;24.70;;;;;;;;;;5062795;28;24419;-63
2021/11/13 04:07:27;;;;;;;31.30;22.80;;;;;;;;;;5063395;28;24446;-62
2021/11/13 04:09:52;;;;;;;31.97;23.10;;;;;;;;;;5055434;28;24418;-63
2021/11/13 04:12:18;;;;;;;30.93;23.70;;;;;;;;;;5057016;28;24415;-63
2021/11/13 04:14:44;;;;;;;30.57;25.87;;;;;;;;;;5061440;28;24394;-63
2021/11/13 04:17:10;;;;;;;30.60;24.37;;;;;;;;;;5060818;28;24435;-63
2021/11/13 04:19:35;;;;;;;30.85;21.90;;;;;;;;;;5062619;28;24486;-62
2021/11/13 04:22:00;;;;;;;28.90;22.93;;;;;;;;;;5056485;28;24502;-63
2021/11/13 04:24:26;;;;;;;28.47;24.00;;;;;;;;;;5057437;28;24952;-62
2021/11/13 04:26:51;;;;;;;27.87;23.03;;;;;;;;;;5058916;28;24525;-63
2021/11/13 04:29:16;;;;;;;27.90;22.13;;;;;;;;;;5060840;28;24776;-62
2021/11/13 04:31:41;;;;;;;26.60;20.67;;;;;;;;;;5062315;28;25078;-63
2021/11/13 04:34:18;;;;;;;28.10;22.73;;;;;;;;;;5059017;28;24778;-63
2021/11/13 04:36:46;;;;;;;27.05;22.10;;;;;;;;;;5058792;28;24469;-63
2021/11/13 04:39:12;;;;;;;26.85;21.17;;;;;;;;;;5058959;28;24951;-63
2021/11/13 04:41:38;;;;;;;26.63;21.70;;;;;;;;;;5061106;28;24546;-63
2021/11/13 04:44:04;;;;;;;27.52;22.13;;;;;;;;;;5059731;28;24514;-63
2021/11/13 04:46:29;;;;;;;26.48;20.65;;;;;;;;;;5060804;28;24518;-62
2021/11/13 04:48:54;;;;;;;25.90;19.60;;;;;;;;;;5058421;28;25055;-62
2021/11/13 04:51:19;;;;;;;25.40;20.70;;;;;;;;;;5056717;28;24471;-62
2021/11/13 04:53:45;;;;;;;25.63;20.37;;;;;;;;;;5056415;28;24596;-62
2021/11/13 04:56:10;;;;;;;23.07;19.07;;;;;;;;;;5060323;28;25073;-62
2021/11/13 04:58:35;;;;;;;25.02;19.50;;;;;;;;;;5061954;28;24410;-63
2021/11/13 05:01:00;;;;;;;26.40;20.80;;;;;;;;;;5056978;28;24463;-63
2021/11/13 05:03:25;;;;;;;27.13;20.90;;;;;;;;;;5048950;28;24403;-62
2021/11/13 05:05:51;;;;;;;26.00;19.13;;;;;;;;;;5060498;28;24458;-63
2021/11/13 05:08:16;;;;;;;27.60;20.98;;;;;;;;;;5059526;28;24457;-63
2021/11/13 05:10:41;;;;;;;23.80;18.90;;;;;;;;;;5061265;28;24769;-62
2021/11/13 05:13:06;;;;;;;26.80;20.53;;;;;;;;;;5060081;28;24506;-62
2021/11/13 05:15:31;;;;;;;24.73;19.70;;;;;;;;;;5053782;28;24820;-62
2021/11/13 05:17:56;;;;;;;25.75;19.15;;;;;;;;;;5059587;28;24457;-62
2021/11/13 05:20:22;;;;;;;23.70;17.57;;;;;;;;;;5058226;28;24430;-62
2021/11/13 05:22:48;;;;;;;22.50;17.40;;;;;;;;;;5059994;28;24561;-62
2021/11/13 05:25:14;;;;;;;22.52;18.77;;;;;;;;;;5049877;28;24420;-63
2021/11/13 05:27:39;;;;;;;21.48;18.08;;;;;;;;;;5061359;28;24422;-63
2021/11/13 05:30:06;;;;;;;21.80;18.20;;;;;;;;;;5056607;28;24387;-60
2021/11/13 05:32:31;;;;;;;21.10;16.13;;;;;;;;;;5057719;28;24528;-61
2021/11/13 05:34:56;;;;;;;18.93;16.80;;;;;;;;;;5060380;28;24418;-61
2021/11/13 05:37:21;;;;;;;21.50;18.00;;;;;;;;;;5059074;28;24427;-62
2021/11/13 05:39:47;;;;;;;19.30;16.88;;;;;;;;;;5060834;28;24520;-61
2021/11/13 05:42:12;;;;;;;17.88;15.30;;;;;;;;;;5058890;28;24442;-62
2021/11/13 05:44:37;;;;;;;18.27;15.20;;;;;;;;;;5060099;28;24387;-61
2021/11/13 05:47:03;;;;;;;20.20;14.57;;;;;;;;;;5060614;28;24425;-61
2021/11/13 05:49:28;;;;;;;18.23;15.10;;;;;;;;;;5060868;28;24434;-61
2021/11/13 05:51:54;;;;;;;16.10;14.35;;;;;;;;;;5057101;28;24509;-62
2021/11/13 05:54:19;;;;;;;18.15;15.80;;;;;;;;;;5061173;28;25246;-62
2021/11/13 05:56:44;;;;;;;16.07;13.67;;;;;;;;;;5063973;28;24469;-61
2021/11/13 05:59:09;;;;;;;18.25;15.60;;;;;;;;;;5063635;28;24473;-61
2021/11/13 06:01:35;;;;;;;16.07;14.37;;;;;;;;;;5065095;28;24521;-61
2021/11/13 06:04:00;;;;;;;15.95;12.80;;;;;;;;;;5063490;28;24983;-61
2021/11/13 06:06:29;;;;;;;15.53;13.00;;;;;;;;;;5056144;28;24451;-61
2021/11/13 06:08:54;;;;;;;15.48;13.18;;;;;;;;;;5032257;28;24419;-61
2021/11/13 06:11:19;;;;;;;17.02;13.93;;;;;;;;;;5063510;28;24769;-61
2021/11/13 06:13:44;;;;;;;16.13;13.77;;;;;;;;;;5063899;28;24464;-61
2021/11/13 06:16:09;;;;;;;16.80;13.60;;;;;;;;;;5062732;28;25338;-62
2021/11/13 06:18:35;;;;;;;17.90;13.47;;;;;;;;;;5057861;28;24936;-61
2021/11/13 06:21:00;;;;;;;15.85;13.60;;;;;;;;;;5057465;28;24415;-61
2021/11/13 06:23:26;;;;;;;15.63;12.50;;;;;;;;;;5052192;28;24423;-62
2021/11/13 06:25:51;;;;;;;16.10;13.20;;;;;;;;;;5062935;28;25026;-62
2021/11/13 06:28:16;;;;;;;14.33;12.43;;;;;;;;;;5061347;28;24406;-62
2021/11/13 06:30:41;;;;;;;15.00;13.40;;;;;;;;;;5061066;28;24502;-61
2021/11/13 06:33:06;;;;;;;15.87;13.27;;;;;;;;;;5056203;28;24505;-63
2021/11/13 06:35:31;;;;;;;14.83;12.20;;;;;;;;;;5057219;28;24476;-62
2021/11/13 06:37:57;;;;;;;15.97;12.93;;;;;;;;;;5056285;28;24449;-62
2021/11/13 06:40:22;;;;;;;14.63;12.40;;;;;;;;;;5064385;28;24419;-61
2021/11/13 06:42:47;;;;;;;14.60;13.00;;;;;;;;;;5064832;28;24511;-62
2021/11/13 06:45:13;;;;;;;13.57;11.67;;;;;;;;;;5076010;28;24402;-62
2021/11/13 06:47:38;;;;;;;16.17;12.90;;;;;;;;;;5079453;28;24425;-65
2021/11/13 06:50:08;;;;;;;14.40;11.60;;;;;;;;;;5062725;28;24475;-62
2021/11/13 06:52:33;;;;;;;14.05;12.50;;;;;;;;;;5060442;28;24477;-63
2021/11/13 06:54:59;;;;;;;15.40;13.10;;;;;;;;;;5062541;28;24992;-62
2021/11/13 06:57:24;;;;;;;15.30;12.70;;;;;;;;;;5063666;28;24520;-62
2021/11/13 06:59:49;;;;;;;14.05;11.93;;;;;;;;;;5059778;28;24407;-62
2021/11/13 07:02:18;;;;;;;13.70;11.80;;;;;;;;;;5050861;28;24411;-62
2021/11/13 07:04:43;;;;;;;14.77;12.30;;;;;;;;;;5048015;28;24411;-62
2021/11/13 07:07:09;;;;;;;14.20;11.97;;;;;;;;;;5061245;28;24473;-61
2021/11/13 07:09:34;;;;;;;13.60;10.80;;;;;;;;;;5057110;28;24514;-62
2021/11/13 07:11:59;;;;;;;13.40;11.73;;;;;;;;;;5060955;28;24423;-63
2021/11/13 07:14:24;;;;;;;13.18;10.95;;;;;;;;;;5061835;28;24410;-61
2021/11/13 07:16:49;;;;;;;12.67;10.50;;;;;;;;;;5059443;28;25180;-61
2021/11/13 07:19:14;;;;;;;13.30;11.90;;;;;;;;;;5057670;28;24785;-62
2021/11/13 07:21:40;;;;;;;14.10;11.47;;;;;;;;;;5060081;28;24438;-61
2021/11/13 07:24:07;;;;;;;15.23;11.90;;;;;;;;;;5061672;28;24476;-62
2021/11/13 07:26:32;;;;;;;14.57;11.80;;;;;;;;;;5057947;28;24480;-62
2021/11/13 07:29:03;;;;;;;14.30;12.20;;;;;;;;;;5060063;28;24450;-61
2021/11/13 07:31:29;;;;;;;14.38;11.80;;;;;;;;;;5057970;28;24426;-63
2021/11/13 07:33:54;;;;;;;13.77;11.50;;;;;;;;;;5054664;28;24435;-63
2021/11/13 07:36:19;;;;;;;14.90;11.67;;;;;;;;;;5060019;28;24433;-62
2021/11/13 07:38:45;;;;;;;14.65;12.35;;;;;;;;;;5059610;28;24972;-62
2021/11/13 07:41:10;;;;;;;15.47;11.90;;;;;;;;;;5057858;28;24415;-63
2021/11/13 07:43:35;;;;;;;14.60;12.80;;;;;;;;;;5059604;28;24493;-62
2021/11/13 07:46:01;;;;;;;15.27;12.87;;;;;;;;;;5066696;28;24460;-62
2021/11/13 07:48:26;;;;;;;14.67;11.73;;;;;;;;;;5061804;28;24828;-62
2021/11/13 07:50:51;;;;;;;16.23;13.60;;;;;;;;;;5061965;28;24968;-62
2021/11/13 07:53:16;;;;;;;14.97;12.43;;;;;;;;;;5067092;28;24471;-62
2021/11/13 07:55:42;;;;;;;13.67;11.80;;;;;;;;;;5064786;28;25003;-62
2021/11/13 07:58:07;;;;;;;15.07;12.67;;;;;;;;;;5071968;28;24431;-62
2021/11/13 08:00:32;;;;;;;16.25;12.50;;;;;;;;;;5053888;28;24446;-62
2021/11/13 08:03:01;;;;;;;14.50;11.47;;;;;;;;;;5057496;28;24419;-62
2021/11/13 08:05:26;;;;;;;13.68;12.00;;;;;;;;;;5062540;28;24411;-62
2021/11/13 08:07:51;;;;;;;15.70;12.70;;;;;;;;;;5062866;28;24982;-62
2021/11/13 08:10:17;;;;;;;16.00;13.33;;;;;;;;;;5057549;28;24464;-62
2021/11/13 08:12:43;;;;;;;14.05;11.60;;;;;;;;;;5061500;28;24421;-62
2021/11/13 08:15:09;;;;;;;14.47;12.20;;;;;;;;;;5054448;28;24434;-61
2021/11/13 08:17:34;;;;;;;15.73;13.60;;;;;;;;;;5057792;28;24841;-62
2021/11/13 08:19:59;;;;;;;15.70;12.77;;;;;;;;;;5059383;28;24438;-62
2021/11/13 08:22:25;;;;;;;16.47;12.20;;;;;;;;;;5062050;28;24836;-61
2021/11/13 08:24:50;;;;;;;17.10;13.10;;;;;;;;;;5057796;28;24406;-62
2021/11/13 08:27:15;;;;;;;15.40;12.80;;;;;;;;;;5060970;28;25009;-62
2021/11/13 08:29:41;;;;;;;16.63;13.67;;;;;;;;;;5062161;28;25044;-63
2021/11/13 08:32:07;;;;;;;15.20;12.20;;;;;;;;;;5058220;28;24399;-62
2021/11/13 08:34:32;;;;;;;14.17;12.23;;;;;;;;;;5056330;28;24441;-62
2021/11/13 08:36:57;;;;;;;14.38;11.48;;;;;;;;;;5060242;28;24463;-62
2021/11/13 08:39:23;;;;;;;15.77;11.95;;;;;;;;;;5062629;28;24402;-63
2021/11/13 08:41:48;;;;;;;15.27;13.13;;;;;;;;;;5062463;28;24437;-61
2021/11/13 08:44:14;;;;;;;16.02;12.10;;;;;;;;;;5072084;28;24494;-61
2021/11/13 08:46:39;;;;;;;13.20;11.20;;;;;;;;;;5077251;28;25191;-61
2021/11/13 08:49:05;;;;;;;14.20;11.70;;;;;;;;;;5067998;28;24410;-61
2021/11/13 08:51:30;;;;;;;13.30;11.07;;;;;;;;;;5062128;28;25003;-62
2021/11/13 08:53:55;;;;;;;13.87;11.67;;;;;;;;;;5062595;28;24459;-61
2021/11/13 08:56:21;;;;;;;13.27;11.65;;;;;;;;;;5058474;28;24568;-62
2021/11/13 08:58:47;;;;;;;11.88;10.10;;;;;;;;;;5056727;28;24785;-61
2021/11/13 09:01:12;;;;;;;12.80;10.63;;;;;;;;;;5062896;28;24407;-62
2021/11/13 09:03:38;;;;;;;14.65;11.68;;;;;;;;;;5062010;28;24527;-61
2021/11/13 09:06:05;;;;;;;14.93;11.60;;;;;;;;;;5060226;28;24414;-61
2021/11/13 09:08:30;;;;;;;13.48;11.25;;;;;;;;;;5056731;28;25054;-64
2021/11/13 09:10:56;;;;;;;11.70;10.37;;;;;;;;;;5058550;28;24494;-61
2021/11/13 09:13:22;;;;;;;12.47;10.23;;;;;;;;;;5060238;28;24794;-61
2021/11/13 09:15:48;;;;;;;13.40;11.20;;;;;;;;;;5079677;28;24456;-61
2021/11/13 09:18:13;;;;;;;12.35;11.05;;;;;;;;;;5064546;28;24406;-62
2021/11/13 09:20:39;;;;;;;11.37;9.63;;;;;;;;;;5062998;28;24423;-61
2021/11/13 09:23:05;;;;;;;12.27;10.40;;;;;;;;;;5057661;28;24411;-60
2021/11/13 09:25:31;;;;;;;13.43;11.13;;;;;;;;;;5061118;28;24569;-62
2021/11/13 09:27:58;;;;;;;13.65;12.20;;;;;;;;;;5037994;28;24461;-62
2021/11/13 09:30:25;;;;;;;12.55;10.65;;;;;;;;;;5042207;28;25014;-62
2021/11/13 09:32:51;;;;;;;13.35;11.13;;;;;;;;;;5041208;28;24455;-62
2021/11/13 09:35:16;;;;;;;13.60;11.13;;;;;;;;;;5044021;28;24473;-63
2021/11/13 09:37:43;;;;;;;14.63;12.13;;;;;;;;;;5065977;28;24427;-63
2021/11/13 09:40:10;;;;;;;13.27;10.88;;;;;;;;;;5063502;28;24426;-62
2021/11/13 09:42:35;;;;;;;14.65;12.45;;;;;;;;;;5065567;28;24757;-63
2021/11/13 09:45:00;;;;;;;13.07;10.93;;;;;;;;;;5060314;28;24394;-63
2021/11/13 09:47:27;;;;;;;14.40;11.88;;;;;;;;;;5062309;28;24979;-62
2021/11/13 09:49:53;;;;;;;13.75;11.60;;;;;;;;;;5063605;28;24522;-62
2021/11/13 09:52:18;;;;;;;12.45;10.70;;;;;;;;;;5069611;28;24411;-62
2021/11/13 09:54:44;;;;;;;12.67;11.10;;;;;;;;;;5079339;28;24501;-62
2021/11/13 09:57:09;;;;;;;11.10;9.90;;;;;;;;;;5081283;28;24541;-62
2021/11/13 09:59:35;;;;;;;11.02;9.55;;;;;;;;;;5059534;28;24415;-61
2021/11/13 10:02:00;;;;;;;11.40;10.20;;;;;;;;;;5063585;28;24407;-61
2021/11/13 10:04:25;;;;;;;10.43;9.43;;;;;;;;;;5064963;28;24491;-59
2021/11/13 10:06:50;;;;;;;9.93;8.93;;;;;;;;;;5065050;28;24413;-59
2021/11/13 10:09:16;;;;;;;13.10;11.10;;;;;;;;;;5063284;28;24418;-60
2021/11/13 10:11:44;;;;;;;11.43;10.23;;;;;;;;;;5059324;28;24769;-62
2021/11/13 10:14:10;;;;;;;11.82;10.45;;;;;;;;;;5063539;28;24406;-62
2021/11/13 10:16:37;;;;;;;12.97;11.13;;;;;;;;;;5064694;28;24480;-63
2021/11/13 10:19:12;;;;;;;11.77;10.20;;;;;;;;;;5063399;28;24398;-62
2021/11/13 10:21:39;;;;;;;12.10;10.80;;;;;;;;;;5063033;28;24411;-62
2021/11/13 10:24:15;;;;;;;12.57;10.83;;;;;;;;;;5059234;28;24407;-61
2021/11/13 10:26:44;;;;;;;12.30;11.00;;;;;;;;;;5058547;28;24506;-61
2021/11/13 10:29:12;;;;;;;12.00;10.70;;;;;;;;;;5059788;28;24413;-61
2021/11/13 10:31:39;;;;;;;15.05;11.52;;;;;;;;;;5064529;28;24513;-62
2021/11/13 10:34:09;;;;;;;13.50;11.57;;;;;;;;;;5062427;28;25050;-62
2021/11/13 10:36:36;;;;;;;10.93;9.82;;;;;;;;;;5058597;28;24477;-61
2021/11/13 10:39:04;;;;;;;12.18;10.88;;;;;;;;;;5062440;28;24940;-61
2021/11/13 10:41:30;;;;;;;13.03;11.53;;;;;;;;;;5064527;28;24442;-61
2021/11/13 10:43:55;;;;;;;12.40;11.10;;;;;;;;;;5061934;28;24414;-60
2021/11/13 10:46:22;;;;;;;12.80;10.77;;;;;;;;;;5060874;28;24634;-59
2021/11/13 10:48:52;;;;;;;15.38;11.32;;;;;;;;;;5060578;28;24415;-60
2021/11/13 10:51:19;;;;;;;12.05;10.20;;;;;;;;;;5060417;28;24447;-60
2021/11/13 10:53:45;;;;;;;13.60;11.60;;;;;;;;;;5064490;28;24391;-60
2021/11/13 10:56:12;;;;;;;13.98;11.57;;;;;;;;;;5062201;28;24545;-61
2021/11/13 10:58:49;;;;;;;13.68;11.93;;;;;;;;;;5059910;28;24411;-61
2021/11/13 11:01:24;;;;;;;13.10;11.45;;;;;;;;;;5055648;28;24727;-61
2021/11/13 11:03:50;;;;;;;12.07;10.73;;;;;;;;;;5060167;28;24401;-61
2021/11/13 11:06:21;;;;;;;12.77;11.20;;;;;;;;;;5062756;28;25081;-61
2021/11/13 11:08:46;;;;;;;12.45;11.05;;;;;;;;;;5061897;28;24491;-61
2021/11/13 11:11:28;;;;;;;14.15;12.63;;;;;;;;;;5058875;28;24490;-61
2021/11/13 11:13:55;;;;;;;14.20;12.70;;;;;;;;;;5059799;28;24423;-61
2021/11/13 11:16:22;;;;;;;15.20;12.48;;;;;;;;;;5063939;28;24799;-61
2021/11/13 11:19:00;;;;;;;14.30;12.80;;;;;;;;;;5074620;28;25002;-62
2021/11/13 11:21:44;;;;;;;14.35;12.07;;;;;;;;;;5044476;28;24857;-63
2021/11/13 11:24:12;;;;;;;13.57;12.00;;;;;;;;;;5058294;28;24419;-62
2021/11/13 11:26:38;;;;;;;15.35;12.65;;;;;;;;;;5062046;28;24429;-62
2021/11/13 11:29:03;;;;;;;14.30;12.40;;;;;;;;;;5056121;28;24785;-62
2021/11/13 11:31:38;;;;;;;15.60;13.00;;;;;;;;;;5064111;28;24940;-62
2021/11/13 11:34:03;;;;;;;15.00;13.40;;;;;;;;;;5057614;28;24443;-62
2021/11/13 11:36:29;;;;;;;14.73;13.13;;;;;;;;;;5059697;28;24439;-62
2021/11/13 11:38:54;;;;;;;15.05;13.02;;;;;;;;;;5061949;28;24595;-62
2021/11/13 11:41:19;;;;;;;16.95;13.73;;;;;;;;;;5063590;28;25200;-62
2021/11/13 11:43:45;;;;;;;16.87;14.50;;;;;;;;;;5063816;28;24426;-62
2021/11/13 11:46:10;;;;;;;18.00;14.60;;;;;;;;;;5061573;28;24387;-62
2021/11/13 11:48:35;;;;;;;17.27;14.30;;;;;;;;;;5057287;28;24592;-61
2021/11/13 11:51:01;;;;;;;16.20;13.80;;;;;;;;;;5058844;28;24415;-61
2021/11/13 11:53:28;;;;;;;17.33;15.45;;;;;;;;;;5062944;28;24521;-62
2021/11/13 11:55:54;;;;;;;17.42;15.10;;;;;;;;;;5062296;28;24446;-62
2021/11/13 11:58:21;;;;;;;17.90;14.63;;;;;;;;;;5061105;28;24449;-62
2021/11/13 12:00:49;;;;;;;18.60;15.27;;;;;;;;;;5057997;28;24438;-62
2021/11/13 12:03:25;;;;;;;17.92;15.40;;;;;;;;;;5059533;28;24920;-62
2021/11/13 12:05:50;;;;;;;18.02;15.23;;;;;;;;;;5061097;28;24407;-62
2021/11/13 12:08:23;;;;;;;19.52;15.60;;;;;;;;;;5063089;28;24884;-61
2021/11/13 12:10:49;;;;;;;17.33;15.30;;;;;;;;;;5063004;28;24437;-62
2021/11/13 12:13:17;;;;;;;17.35;15.40;;;;;;;;;;5059377;28;24410;-61
2021/11/13 12:15:46;;;;;;;17.67;14.82;;;;;;;;;;5056626;28;24417;-61
2021/11/13 12:18:31;;;;;;;19.38;15.05;;;;;;;;;;5060011;28;24793;-61
2021/11/13 12:21:03;;;;;;;19.35;16.38;;;;;;;;;;5058237;28;24976;-62
2021/11/13 12:23:39;;;;;;;20.00;16.30;;;;;;;;;;5061547;28;24428;-61
2021/11/13 12:26:11;;;;;;;18.67;15.43;;;;;;;;;;5055011;28;24510;-61
2021/11/13 12:28:45;;;;;;;18.60;16.30;;;;;;;;;;5046554;28;24451;-60
2021/11/13 12:31:13;;;;;;;21.63;17.97;;;;;;;;;;5060305;28;24488;-61
2021/11/13 12:33:39;;;;;;;21.25;17.65;;;;;;;;;;5058171;28;24438;-62
2021/11/13 12:36:04;;;;;;;18.30;16.30;;;;;;;;;;5057146;28;24534;-62
2021/11/13 12:38:29;;;;;;;20.95;17.42;;;;;;;;;;5056293;28;24711;-62
2021/11/13 12:41:06;;;;;;;19.63;16.90;;;;;;;;;;5067643;28;24431;-63
2021/11/13 12:43:49;;;;;;;23.87;17.67;;;;;;;;;;5062425;28;24414;-62
2021/11/13 12:46:33;;;;;;;20.63;17.90;;;;;;;;;;5060103;28;24437;-62
2021/11/13 12:49:22;;;;;;;20.08;16.98;;;;;;;;;;5059954;28;24472;-63
2021/11/13 12:51:50;;;;;;;19.40;16.48;;;;;;;;;;5053272;28;24418;-62
2021/11/13 12:54:16;;;;;;;19.27;16.73;;;;;;;;;;5062010;28;24451;-63
2021/11/13 12:56:44;;;;;;;21.20;18.40;;;;;;;;;;5061148;28;24576;-62
2021/11/13 12:59:16;;;;;;;21.42;17.85;;;;;;;;;;5052341;28;24960;-62
2021/11/13 13:01:49;;;;;;;20.53;17.30;;;;;;;;;;5058838;28;24523;-62
2021/11/13 13:04:14;;;;;;;20.85;18.42;;;;;;;;;;5046653;28;24416;-62
2021/11/13 13:06:43;;;;;;;21.63;19.27;;;;;;;;;;5052051;28;24418;-62
2021/11/13 13:09:08;;;;;;;22.67;19.42;;;;;;;;;;5053545;28;24518;-61
2021/11/13 13:11:33;;;;;;;22.52;19.40;;;;;;;;;;5062232;28;24502;-62
2021/11/13 13:13:59;;;;;;;23.30;19.45;;;;;;;;;;5057534;28;24516;-62
2021/11/13 13:16:28;;;;;;;22.27;18.42;;;;;;;;;;5060570;28;24492;-62
2021/11/13 13:18:59;;;;;;;19.83;17.23;;;;;;;;;;5058801;28;25282;-62
2021/11/13 13:21:24;;;;;;;21.03;18.20;;;;;;;;;;5062401;28;24597;-62
2021/11/13 13:23:49;;;;;;;19.08;17.08;;;;;;;;;;5062102;28;24519;-62
2021/11/13 13:26:17;;;;;;;20.80;17.60;;;;;;;;;;5056391;28;24407;-62
2021/11/13 13:28:42;;;;;;;19.15;16.70;;;;;;;;;;5058683;28;24430;-61
2021/11/13 13:31:08;;;;;;;18.93;16.63;;;;;;;;;;5062202;28;24419;-62
2021/11/13 13:33:33;;;;;;;19.20;16.73;;;;;;;;;;5061214;28;24443;-61
2021/11/13 13:35:59;;;;;;;18.33;16.20;;;;;;;;;;5059264;28;24564;-62
2021/11/13 13:38:25;;;;;;;17.90;15.00;;;;;;;;;;5042002;28;25027;-61
2021/11/13 13:40:55;;;;;;;20.50;18.30;;;;;;;;;;5045321;28;24422;-62
2021/11/13 13:43:21;;;;;;;20.90;17.43;;;;;;;;;;5061595;28;24415;-63
2021/11/13 13:45:47;;;;;;;22.40;18.67;;;;;;;;;;5061564;28;24417;-62
2021/11/13 13:48:12;;;;;;;22.30;19.90;;;;;;;;;;5058541;28;24434;-62
2021/11/13 13:50:43;;;;;;;22.17;18.63;;;;;;;;;;5051742;28;24439;-63
2021/11/13 13:53:08;;;;;;;20.92;18.73;;;;;;;;;;5053957;28;24426;-63
2021/11/13 13:55:38;;;;;;;20.38;18.27;;;;;;;;;;5061337;28;24418;-63
2021/11/13 13:58:07;;;;;;;23.55;18.60;;;;;;;;;;5051000;28;24842;-62
2021/11/13 14:00:33;;;;;;;22.00;18.92;;;;;;;;;;5052666;28;24475;-62
2021/11/13 14:02:59;;;;;;;21.23;18.92;;;;;;;;;;5059476;28;24778;-63
2021/11/13 14:05:26;;;;;;;21.77;19.47;;;;;;;;;;5049118;28;24410;-63
2021/11/13 14:07:51;;;;;;;24.30;20.58;;;;;;;;;;5049291;28;24824;-62
2021/11/13 14:10:17;;;;;;;21.60;18.27;;;;;;;;;;5058082;28;24502;-62
2021/11/13 14:12:48;;;;;;;21.80;19.13;;;;;;;;;;5055997;28;24415;-62